Walworth, Wisconsin
Current Conditions -  °F | °C
As of 5:55 AM on Sunday 23 Nov 2014 (Local Time) from KBUU Reporting Station
Haze Haze  
Wind Chill: 42°   Ceiling: 700
Heat Index: 47°   Visibility: 5mi
Dew Point: 46°   Wind: 13mph
Humidity: 95%   Direction: 190°S
Pressure: 29.7"   Gusts: 17mph
Location:  42.53°N, 88.6°W
Report Text: KBUU 231155Z AUTO 19011G15KT 5SM BR OVC007 09/08 A2970 RMK AO2 T00850078 10087 20083
Loading
Personal Weather Stations






























Interactive Weather Map New forecast layout! Learn more

10-Day Weather Forecast

Advertisements
Track Severe Weather on mobile